Aérodrome :
LOGIN :

S'inscrire | Disclaimer

   EN    FR    IT 

 










Légende :    VFR   VFR Marginal   IFR   IFR Intensif   IFR Très Intensif
Visi : 
Plafond : 
>= 8 km
>= 3000ft
5 à 8 km
1000 à 3000 ft
1500m à 5 km
500 à 1000 ft
800 à 1500m
200 à 500 ft
< 800m
< 200 ft
Symboles :   Orages  Brouillard  Fortes neiges  Fortes précipitations  Vent > 20 kt
SIGMETs :   Divers  Orages  Givrage  Turbulence  Onde Orograph.  Cendres Volcan.






- Altitude de l'aérodrome : 1475 ft


LSZC - Buochs Stans

DERNIER METAR :
  • 281520Z AUTO 06010KT 9000 -SN BKN014 OVC016 02/M01 Q1006

METARs EXPIRÉS :
  • 281450Z AUTO 08008KT 040V120 8000 -SN BKN012 OVC014 02/M00 Q1005 RERASN
  • 281420Z AUTO VRB06KT 5000 RASN BKN014 BKN016 03/00 Q1004
  • 281350Z VRB04G21KT 9999 -RA VCSH BKN021 OVC055 04/00 Q1003
  • 281320Z 08007KT 030V140 9999 -RA BKN019 BKN022 04/00 Q1003
  • 281250Z VRB07KT 5000 RA BR FEW024 SCT027 BKN030 04/00 Q1002
  • 281220Z 33014KT 290V360 6000 -RA BKN036 BKN041 05/01 Q1002
  • 281150Z AUTO 21004KT 140V270 9999 -RA BKN035 BKN039 BKN050 06/01 Q1002
  • 281120Z AUTO 24006KT 190V330 9999 RA SCT032 BKN036 BKN042 06/00 Q1001
  • 281050Z 29003KT 180V350 9999 -RA SCT025 OVC044 06/02 Q1000

TAF TAF LSZC
Valide du 28 à 15h jusqu'au 29 à 00h UTC


281425Z 2815/2824 25007KT 9999 BKN020 OVC050
TEMPO 2815/2817 -SNRA
PROB40
TEMPO 2815/2817 25012G25KT 4000 SNRA BKN013
PROB30
TEMPO 2815/2819 2000 -SN BKN008



MET'MAP, la Météo Aéronautique d'un coup d'oeil ! - Copyright ORBIFLY Décembre 2007 - Disclaimer

ORBIFLY MET'MAP TEAM :

Programmation & Développement : Alexandra Zaïnal
Sur une idée originale de : Baudouin d'Aumeries
Soutien technique & logistique : Manuel Goepfert
Assistance : Marc-Olivier Méhu




SOURCES & CREDITS :

   NOAA